Impacts TAF Board INFO
FOR SITUATIONAL AWARENESS. NOT TO BE USED FOR FLIGHT PLANNING PURPOSES.
IDs:

KSLC - Salt Lake City Intl, UT, US

Issued at 0534 UTC 21 Nov 2017
Updated at 0750 UTC 21 Nov 2017
Potential Impact None Slight Moderate High
Time0654Z 21/08Z 21/09Z 21/10Z 21/11Z 21/12Z 21/13Z 21/14Z 21/15Z 21/16Z 21/17Z 21/18Z 21/19Z 21/20Z>>
Type OBS PRVL PRVL PRVL PRVL PRVL PRVL PRVL PRVL PRVL PRVL PRVL PRVL PRVL
VIS 10 >6 >6 >6 >6 >6 >6 >6 >6 >6 >6 >6 >6 >6
CIG 70 60 60 60 60 60 60 60 60 60 60 90 90 90
Cover OVC OVC OVC OVC OVC OVC OVC OVC OVC OVC OVC BKN BKN BKN
FltCat VFR VFR VFR VFR VFR VFR VFR VFR VFR VFR VFR VFR VFR VFR
WX -- VCSH VCSH VCSH VCSH VCSH VCSH VCSH VCSH VCSH VCSH -- -- --
WDir 120 150 150 150 150 150 150 150 150 150 150 340 340 340
WSpd 7 6 6 6 6 6 6 6 6 6 6 5 5 5
WGst -- -- -- -- -- -- -- -- -- -- -- -- -- --

Raw TAF
KSLC 210534Z 2106/2212 15006KT P6SM VCSH SCT040 OVC060
  FM211800 34005KT P6SM SCT060 BKN090
  FM220300 15005KT P6SM SCT070 BKN110
  FM220600 13007KT P6SM SCT060 BKN100


Raw METAR
KSLC 210654Z 12007KT 10SM BKN070 OVC085 08/02 A3015 RMK AO2 SLP198 T00830017 400890011 VISNO NW RNWY
KSLC 210554Z 12004KT 10SM FEW030 BKN060 08/02 A3014 RMK AO2 SLP196 T00830022 10083 20067 51005 VISNO NW RNWY
KSLC 210454Z 00000KT 10SM FEW035 BKN065 07/03 A3014 RMK AO2 SLP201 T00720028 VISNO NW RNWY

METAR Board
Radar Display
Forecast Discussion

FOR SITUATIONAL AWARENESS. NOT TO BE USED FOR FLIGHT PLANNING PURPOSES.